createdAt,value
2022-08-02T00:01:00.980Z,1.55
2022-08-02T00:03:29.332Z,0.80
2022-08-02T00:05:59.264Z,0.88
2022-08-02T00:08:27.521Z,1.02
2022-08-02T00:10:55.872Z,1.00
2022-08-02T00:13:24.127Z,0.70
2022-08-02T00:15:53.756Z,3.22
2022-08-02T00:18:22.067Z,1.20
2022-08-02T00:20:50.802Z,0.75
2022-08-02T00:23:19.200Z,1.23
2022-08-02T00:25:54.863Z,1.83
2022-08-02T00:28:27.993Z,1.17
2022-08-02T00:30:58.818Z,4.93
2022-08-02T00:34:26.256Z,0.82
2022-08-02T00:36:16.078Z,1.77
2022-08-02T00:38:44.995Z,2.15
2022-08-02T00:41:16.593Z,1.50
2022-08-02T00:43:45.369Z,2.72
2022-08-02T00:46:16.366Z,0.75
2022-08-02T00:48:44.744Z,4.22
2022-08-02T00:51:13.956Z,1.02
2022-08-02T00:53:42.408Z,0.88
2022-08-02T00:56:10.777Z,1.73
2022-08-02T00:58:39.310Z,1.10
2022-08-02T01:01:07.666Z,1.13
2022-08-02T01:03:37.431Z,3.60
2022-08-02T01:06:13.406Z,1.08
2022-08-02T01:08:41.875Z,0.80
2022-08-02T01:11:13.360Z,1.77
2022-08-02T01:13:41.828Z,1.83
2022-08-02T01:16:17.737Z,1.15
2022-08-02T01:18:54.305Z,1.63
2022-08-02T01:21:51.214Z,2.95
2022-08-02T01:24:45.739Z,0.90
2022-08-02T01:27:35.070Z,5.05
2022-08-02T01:30:07.278Z,1.60
2022-08-02T01:32:43.165Z,1.30
2022-08-02T01:35:16.974Z,0.90
2022-08-02T01:37:50.983Z,2.05
2022-08-02T01:40:27.324Z,0.80
2022-08-02T01:42:57.824Z,0.88
2022-08-02T01:45:31.926Z,2.53
2022-08-02T01:48:01.820Z,1.83
2022-08-02T01:50:34.071Z,1.48
2022-08-02T01:53:06.744Z,1.58
2022-08-02T01:55:56.853Z,1.95
2022-08-02T01:58:29.942Z,0.75
2022-08-02T02:01:01.117Z,1.92
2022-08-02T02:03:33.671Z,1.00
2022-08-02T02:06:06.709Z,1.10
2022-08-02T02:08:40.166Z,0.70
2022-08-02T02:12:06.214Z,0.90
2022-08-02T02:13:59.856Z,3.22
2022-08-02T02:16:32.049Z,1.17
2022-08-02T02:19:03.197Z,1.77
2022-08-02T02:24:00.404Z,1.40
2022-08-02T02:26:31.900Z,1.40
2022-08-02T02:29:03.012Z,1.70
2022-08-02T02:34:07.298Z,2.10
2022-08-02T02:36:36.323Z,0.90
2022-08-02T02:39:13.072Z,3.38
2022-08-02T02:41:43.718Z,1.20
2022-08-02T02:44:17.745Z,2.25
2022-08-02T02:46:50.763Z,1.98
2022-08-02T02:49:20.654Z,2.05
2022-08-02T02:51:49.929Z,2.72
2022-08-02T02:54:33.347Z,1.75
2022-08-02T02:57:03.054Z,1.70
2022-08-02T02:59:31.801Z,1.80
2022-08-02T03:02:02.653Z,1.77
2022-08-02T03:04:56.356Z,1.33
2022-08-02T03:07:21.354Z,1.67
2022-08-02T03:09:53.859Z,2.92
2022-08-02T03:12:30.146Z,2.33
2022-08-02T03:15:00.120Z,2.47
2022-08-02T03:17:39.979Z,1.42
2022-08-02T03:20:14.974Z,2.88
2022-08-02T03:22:43.895Z,1.40
2022-08-02T03:25:14.049Z,2.15
2022-08-02T03:27:42.701Z,2.67
2022-08-02T03:30:13.469Z,2.38
2022-08-02T03:32:46.958Z,2.67
2022-08-02T03:35:23.822Z,1.70
2022-08-02T03:37:55.678Z,2.28
2022-08-02T03:40:24.971Z,2.22
2022-08-02T03:42:53.663Z,3.63
2022-08-02T03:45:22.221Z,4.90
2022-08-02T03:47:53.106Z,4.60
2022-08-02T03:50:23.942Z,3.72
2022-08-02T03:52:53.050Z,3.50
2022-08-02T03:55:21.365Z,2.13
2022-08-02T03:57:49.993Z,2.50
2022-08-02T04:00:22.012Z,1.88
2022-08-02T04:02:51.703Z,3.58
2022-08-02T04:05:20.633Z,3.50
2022-08-02T04:08:32.703Z,2.63
2022-08-02T04:10:51.722Z,2.20
2022-08-02T04:13:26.462Z,3.17
2022-08-02T04:16:05.353Z,1.88
2022-08-02T04:18:45.584Z,2.38
2022-08-02T04:21:18.737Z,4.82
2022-08-02T04:23:48.890Z,1.88
2022-08-02T04:26:17.779Z,4.60
2022-08-02T04:28:47.564Z,2.95
2022-08-02T04:31:16.853Z,3.88
2022-08-02T04:33:47.801Z,4.93
2022-08-02T04:36:31.443Z,2.95
2022-08-02T04:39:00.376Z,4.50
2022-08-02T04:41:43.643Z,2.45
2022-08-02T04:44:13.113Z,3.45
2022-08-02T04:46:42.838Z,3.97
2022-08-02T04:49:12.963Z,3.90
2022-08-02T04:51:42.610Z,7.90
2022-08-02T04:54:12.496Z,3.97
2022-08-02T04:56:41.657Z,4.53
2022-08-02T04:59:10.251Z,2.45
2022-08-02T05:01:39.400Z,3.38
2022-08-02T05:04:07.803Z,4.07
2022-08-02T05:06:37.600Z,4.78
2022-08-02T05:09:05.839Z,2.50
2022-08-02T05:11:36.037Z,8.43
2022-08-02T05:14:05.831Z,5.53
2022-08-02T05:16:34.403Z,4.07
2022-08-02T05:19:03.393Z,3.05
2022-08-02T05:21:32.603Z,3.95
2022-08-02T05:24:02.265Z,4.90
2022-08-02T05:26:30.584Z,2.90
2022-08-02T05:28:58.957Z,3.88
2022-08-02T05:31:27.261Z,2.53
2022-08-02T05:33:55.602Z,4.40
2022-08-02T05:36:23.859Z,3.60
2022-08-02T05:38:52.944Z,3.13
2022-08-02T05:41:29.498Z,9.38
2022-08-02T05:43:58.008Z,3.13
2022-08-02T05:46:26.340Z,5.80
2022-08-02T05:48:54.859Z,4.18
2022-08-02T05:51:29.881Z,3.55
2022-08-02T05:54:12.282Z,6.93
2022-08-02T05:56:48.338Z,2.70
2022-08-02T05:59:28.982Z,4.20
2022-08-02T06:01:59.445Z,2.80
2022-08-02T06:04:34.388Z,8.23
2022-08-02T06:07:06.243Z,3.63
2022-08-02T06:09:35.525Z,2.08
2022-08-02T06:12:07.167Z,3.53
2022-08-02T06:14:35.914Z,2.88
2022-08-02T06:17:06.067Z,5.20
2022-08-02T06:19:47.026Z,10.47
2022-08-02T06:22:34.781Z,2.72
2022-08-02T06:25:47.854Z,4.00
2022-08-02T06:27:57.045Z,3.13
2022-08-02T06:30:25.615Z,2.70
2022-08-02T06:32:54.413Z,3.15
2022-08-02T06:35:22.999Z,6.70
2022-08-02T06:37:59.035Z,4.90
2022-08-02T06:40:32.265Z,3.20
2022-08-02T06:43:13.155Z,6.72
2022-08-02T06:45:42.070Z,4.07
2022-08-02T06:48:11.141Z,4.65
2022-08-02T06:50:41.940Z,4.63
2022-08-02T06:53:11.404Z,5.43
2022-08-02T06:55:43.441Z,3.33
2022-08-02T06:58:14.700Z,3.83
2022-08-02T07:00:44.689Z,6.03
2022-08-02T07:03:13.174Z,3.60
2022-08-02T07:05:43.638Z,4.15
2022-08-02T07:08:11.867Z,4.63
2022-08-02T07:10:40.142Z,4.07
2022-08-02T07:13:08.463Z,5.28
2022-08-02T07:15:39.064Z,3.38
2022-08-02T07:18:17.316Z,7.03
2022-08-02T07:20:45.916Z,3.97
2022-08-02T07:23:15.048Z,3.55
2022-08-02T07:26:03.189Z,3.85
2022-08-02T07:28:32.128Z,4.13
2022-08-02T07:31:01.806Z,3.38
2022-08-02T07:33:46.781Z,4.55
2022-08-02T07:36:17.055Z,5.05
2022-08-02T07:38:51.126Z,4.47
2022-08-02T07:41:21.518Z,5.05
2022-08-02T07:43:51.377Z,4.57
2022-08-02T07:46:21.098Z,3.95
2022-08-02T07:48:49.789Z,8.93
2022-08-02T07:51:18.054Z,3.70
2022-08-02T07:53:51.043Z,4.03
2022-08-02T07:56:30.723Z,5.13
2022-08-02T07:58:58.995Z,4.47
2022-08-02T08:01:28.737Z,6.05
2022-08-02T08:03:57.064Z,5.65
2022-08-02T08:06:28.553Z,4.95
2022-08-02T08:08:57.504Z,4.95
2022-08-02T08:11:27.406Z,6.07
2022-08-02T08:13:55.693Z,6.50
2022-08-02T08:16:26.197Z,7.40
2022-08-02T08:18:55.905Z,7.70
2022-08-02T08:21:24.195Z,8.77
2022-08-02T08:23:52.528Z,7.80
2022-08-02T08:26:21.079Z,8.20
2022-08-02T08:28:49.399Z,8.68
2022-08-02T08:31:17.685Z,9.98
2022-08-02T08:33:45.970Z,13.63
2022-08-02T08:36:16.620Z,18.42
2022-08-02T08:38:45.005Z,13.57
2022-08-02T08:41:13.459Z,14.98
2022-08-02T08:43:41.678Z,19.25
2022-08-02T08:46:12.456Z,19.25
2022-08-02T08:48:45.308Z,16.15
2022-08-02T08:51:22.520Z,21.15
2022-08-02T08:53:55.417Z,28.67
2022-08-02T08:56:24.237Z,31.33
2022-08-02T08:58:52.513Z,39.92
2022-08-02T09:01:21.640Z,40.65
2022-08-02T09:03:50.004Z,46.22
2022-08-02T09:06:20.560Z,54.20
2022-08-02T09:08:49.163Z,54.35
2022-08-02T09:11:20.070Z,51.72
2022-08-02T09:13:54.441Z,56.67
2022-08-02T09:16:35.234Z,69.45
2022-08-02T09:21:49.994Z,50.55
2022-08-02T09:24:20.373Z,57.63
2022-08-02T09:26:50.488Z,64.88
2022-08-02T09:29:21.448Z,65.13
2022-08-02T09:31:51.419Z,79.18
2022-08-02T09:34:20.379Z,93.67
2022-08-02T09:36:54.451Z,104.40
2022-08-02T09:39:26.457Z,107.50
2022-08-02T09:42:10.643Z,114.35
2022-08-02T09:44:39.174Z,112.85
2022-08-02T09:47:16.840Z,107.40
2022-08-02T09:49:52.251Z,99.65
2022-08-02T09:52:36.857Z,99.25
2022-08-02T09:55:12.999Z,98.78
2022-08-02T09:57:41.826Z,107.85
2022-08-02T10:00:14.944Z,91.03
2022-08-02T10:03:08.327Z,99.38
2022-08-02T10:05:55.573Z,91.75
2022-08-02T10:08:27.401Z,107.95
2022-08-02T10:11:01.441Z,112.60
2022-08-02T10:13:31.860Z,92.47
2022-08-02T10:16:00.734Z,73.38
2022-08-02T10:18:38.865Z,92.65
2022-08-02T10:21:13.266Z,82.07
2022-08-02T10:23:45.866Z,46.20
2022-08-02T10:26:20.068Z,79.65
2022-08-02T10:28:50.557Z,61.53
2022-08-02T10:31:25.353Z,53.75
2022-08-02T10:33:55.612Z,53.03
2022-08-02T10:36:27.173Z,48.20
2022-08-02T10:38:58.653Z,36.35
2022-08-02T10:41:48.430Z,46.42
2022-08-02T10:44:29.227Z,53.28
2022-08-02T10:47:26.166Z,57.20
2022-08-02T10:49:56.453Z,56.55
2022-08-02T10:52:25.441Z,106.68
2022-08-02T10:55:00.552Z,72.47
2022-08-02T10:57:31.498Z,28.77
2022-08-02T11:00:05.484Z,46.30
2022-08-02T11:02:40.837Z,26.65
2022-08-02T11:05:18.614Z,20.77
2022-08-02T11:07:49.544Z,48.47
2022-08-02T11:10:40.635Z,38.10
2022-08-02T11:13:14.992Z,26.35
2022-08-02T11:15:57.023Z,9.52
2022-08-02T11:19:06.688Z,10.50
2022-08-02T11:21:37.136Z,13.02
2022-08-02T11:24:29.501Z,19.63
2022-08-02T11:27:00.614Z,16.65
2022-08-02T11:29:38.593Z,5.10
2022-08-02T11:32:08.957Z,33.97
2022-08-02T11:34:38.467Z,57.53
2022-08-02T11:37:07.745Z,19.83
2022-08-02T11:39:36.078Z,50.50
2022-08-02T11:42:06.298Z,52.42
2022-08-02T11:44:42.954Z,128.32
2022-08-02T11:47:11.273Z,36.75
2022-08-02T11:49:39.705Z,69.88
2022-08-02T11:52:11.628Z,41.75
2022-08-02T11:54:43.200Z,49.00
2022-08-02T11:57:20.595Z,26.05
2022-08-02T11:59:51.400Z,36.25
2022-08-02T12:02:21.383Z,27.10
2022-08-02T12:05:02.088Z,22.15
2022-08-02T12:07:35.301Z,13.23
2022-08-02T12:10:08.409Z,11.35
2022-08-02T12:12:51.960Z,24.45
2022-08-02T12:15:37.390Z,10.45
2022-08-02T12:18:28.578Z,42.20
2022-08-02T12:20:57.024Z,21.58
2022-08-02T12:23:25.907Z,36.08
2022-08-02T12:26:06.593Z,34.15
2022-08-02T12:28:39.376Z,7.85
2022-08-02T12:31:10.578Z,13.57
2022-08-02T12:34:17.005Z,7.88
2022-08-02T12:36:47.044Z,10.82
2022-08-02T12:39:15.858Z,10.70
2022-08-02T12:41:54.973Z,15.30
2022-08-02T12:44:23.560Z,10.38
2022-08-02T12:47:01.866Z,15.77
2022-08-02T12:52:04.994Z,4.90
2022-08-02T12:54:41.665Z,9.75
2022-08-02T12:57:13.823Z,25.15
2022-08-02T12:59:45.405Z,16.13
2022-08-02T13:02:17.010Z,18.35
2022-08-02T13:04:50.357Z,25.55
2022-08-02T13:07:19.934Z,30.90
2022-08-02T13:09:50.088Z,36.70
2022-08-02T13:12:18.538Z,48.45
2022-08-02T13:14:46.906Z,26.33
2022-08-02T13:17:15.443Z,24.67
2022-08-02T13:19:43.773Z,10.15
2022-08-02T13:22:13.621Z,16.08
2022-08-02T13:24:56.090Z,13.68
2022-08-02T13:27:26.166Z,13.07
2022-08-02T13:29:56.667Z,7.28
2022-08-02T13:34:53.744Z,4.00
2022-08-02T13:37:23.486Z,3.05
2022-08-02T13:40:18.608Z,3.88
2022-08-02T13:42:40.448Z,4.40
2022-08-02T13:45:13.323Z,6.05
2022-08-02T13:47:57.595Z,3.75
2022-08-02T13:50:32.147Z,5.85
2022-08-02T13:53:01.892Z,8.63
2022-08-02T13:55:30.594Z,2.30
2022-08-02T13:58:00.303Z,2.92
2022-08-02T14:00:35.066Z,2.28
2022-08-02T14:03:06.819Z,2.10
2022-08-02T14:05:47.867Z,2.40
2022-08-02T14:08:20.049Z,4.18
2022-08-02T14:10:49.140Z,6.50
2022-08-02T14:13:17.515Z,3.97
2022-08-02T14:15:46.146Z,7.35
2022-08-02T14:18:15.500Z,5.22
2022-08-02T14:20:44.912Z,4.85
2022-08-02T14:23:13.891Z,8.10
2022-08-02T14:25:43.954Z,4.78
2022-08-02T14:28:12.380Z,12.75
2022-08-02T14:30:40.695Z,18.48
2022-08-02T14:33:09.346Z,12.85
2022-08-02T14:35:37.686Z,15.00
2022-08-02T14:38:07.092Z,21.35
2022-08-02T14:40:35.662Z,12.98
2022-08-02T14:43:05.697Z,23.92
2022-08-02T14:45:40.163Z,30.00
2022-08-02T14:48:11.572Z,30.83
2022-08-02T14:53:12.014Z,19.65
2022-08-02T14:55:42.782Z,27.17
2022-08-02T14:58:13.365Z,25.42
2022-08-02T15:00:41.961Z,27.33
2022-08-02T15:03:12.867Z,21.35
2022-08-02T15:05:41.559Z,16.13
2022-08-02T15:08:09.855Z,24.42
2022-08-02T15:10:38.209Z,15.85
2022-08-02T15:13:07.323Z,11.43
2022-08-02T15:15:43.366Z,24.95
2022-08-02T15:18:13.861Z,16.08
2022-08-02T15:20:46.206Z,9.15
2022-08-02T15:23:37.567Z,15.30
2022-08-02T15:26:07.786Z,9.85
2022-08-02T15:28:37.050Z,10.63
2022-08-02T15:31:06.692Z,18.35
2022-08-02T15:33:34.918Z,23.50
2022-08-02T15:36:03.233Z,16.95
2022-08-02T15:38:31.602Z,14.95
2022-08-02T15:40:59.882Z,16.50
2022-08-02T15:43:28.322Z,14.35
2022-08-02T15:45:56.565Z,16.65
2022-08-02T15:48:26.260Z,25.00
2022-08-02T15:50:54.480Z,16.80
2022-08-02T15:53:22.783Z,15.65
2022-08-02T15:56:04.429Z,9.98
2022-08-02T15:58:42.552Z,15.77
2022-08-02T16:01:12.669Z,16.40
2022-08-02T16:03:42.437Z,15.25
2022-08-02T16:06:11.160Z,12.07
2022-08-02T16:08:44.585Z,12.18
2022-08-02T16:11:22.439Z,15.30
2022-08-02T16:13:56.838Z,17.25
2022-08-02T16:16:28.976Z,17.85
2022-08-02T16:19:45.774Z,21.42
2022-08-02T16:21:50.557Z,17.02
2022-08-02T16:24:19.062Z,19.40
2022-08-02T16:26:47.667Z,15.63
2022-08-02T16:29:19.121Z,17.13
2022-08-02T16:31:48.116Z,16.50
2022-08-02T16:34:18.522Z,21.27
2022-08-02T16:36:47.302Z,20.23
2022-08-02T16:39:15.639Z,22.80
2022-08-02T16:41:50.689Z,16.27
2022-08-02T16:44:29.041Z,19.08
2022-08-02T16:47:00.956Z,15.18
2022-08-02T16:50:05.450Z,16.33
2022-08-02T16:52:37.609Z,18.50
2022-08-02T16:57:58.170Z,21.25
2022-08-02T17:00:26.473Z,18.85
2022-08-02T17:02:54.745Z,19.10
2022-08-02T17:05:37.861Z,15.48
2022-08-02T17:08:19.019Z,18.02
2022-08-02T17:10:47.395Z,19.42
2022-08-02T17:13:15.794Z,14.77
2022-08-02T17:16:08.695Z,17.77
2022-08-02T17:18:34.254Z,16.77
2022-08-02T17:21:08.014Z,19.38
2022-08-02T17:24:04.399Z,18.80
2022-08-02T17:26:24.758Z,16.38
2022-08-02T17:29:15.663Z,13.38
2022-08-02T17:32:04.721Z,17.50
2022-08-02T17:34:34.537Z,20.75
2022-08-02T17:37:06.331Z,18.20
2022-08-02T17:39:44.092Z,19.65
2022-08-02T17:42:23.488Z,16.50
2022-08-02T17:44:53.700Z,15.82
2022-08-02T17:47:22.777Z,14.68
2022-08-02T17:49:59.947Z,15.27
2022-08-02T17:52:50.558Z,14.27
2022-08-02T17:55:19.561Z,16.52
2022-08-02T17:57:56.966Z,15.05
2022-08-02T18:00:33.834Z,17.98
2022-08-02T18:03:06.286Z,17.88
2022-08-02T18:05:40.346Z,16.05
2022-08-02T18:08:24.226Z,16.17
2022-08-02T18:10:53.493Z,17.30
2022-08-02T18:13:22.346Z,15.82
2022-08-02T18:15:57.089Z,14.75
2022-08-02T18:18:30.241Z,14.82
2022-08-02T18:21:16.169Z,13.23
2022-08-02T18:26:41.233Z,13.18
2022-08-02T18:29:12.178Z,13.23
2022-08-02T18:31:50.778Z,11.48
2022-08-02T18:34:23.945Z,28.98
2022-08-02T18:36:52.719Z,14.05
2022-08-02T18:39:22.394Z,11.73
2022-08-02T18:41:50.701Z,11.15
2022-08-02T18:44:19.092Z,11.95
2022-08-02T18:46:49.349Z,12.93
2022-08-02T18:49:17.927Z,11.73
2022-08-02T18:51:46.271Z,10.73
2022-08-02T18:54:15.584Z,7.55
2022-08-02T18:56:47.146Z,8.38
2022-08-02T18:59:16.071Z,3.80
2022-08-02T19:01:50.738Z,6.65
2022-08-02T19:04:27.183Z,7.53
2022-08-02T19:07:06.966Z,4.47
2022-08-02T19:09:40.007Z,3.15
2022-08-02T19:12:12.454Z,3.05
2022-08-02T19:14:41.111Z,5.75
2022-08-02T19:17:54.477Z,2.83
2022-08-02T19:19:58.496Z,10.40
2022-08-02T19:22:27.414Z,6.68
2022-08-02T19:25:01.117Z,11.77
2022-08-02T19:27:32.057Z,23.15
2022-08-02T19:30:02.861Z,5.72
2022-08-02T19:32:42.620Z,4.03
2022-08-02T19:38:11.480Z,6.65
2022-08-02T19:40:41.794Z,2.40
2022-08-02T19:46:00.767Z,2.83
2022-08-02T19:48:29.181Z,2.45
2022-08-02T19:51:00.892Z,2.83
2022-08-02T19:53:46.696Z,2.83
2022-08-02T19:56:25.534Z,2.85
2022-08-02T19:58:57.843Z,2.35
2022-08-02T20:01:37.266Z,4.10
2022-08-02T20:04:13.752Z,2.60
2022-08-02T20:06:45.550Z,5.18
2022-08-02T20:09:16.596Z,8.50
2022-08-02T20:11:46.013Z,1.92
2022-08-02T20:14:15.674Z,3.10
2022-08-02T20:16:45.975Z,1.50
2022-08-02T20:19:15.129Z,1.80
2022-08-02T20:21:50.512Z,1.40
2022-08-02T20:24:26.472Z,4.45
2022-08-02T20:26:55.582Z,2.55
2022-08-02T20:29:43.257Z,1.58
2022-08-02T20:32:14.786Z,1.77
2022-08-02T20:34:43.295Z,1.20
2022-08-02T20:37:56.135Z,2.40
2022-08-02T20:40:06.654Z,1.75
2022-08-02T20:42:35.334Z,1.13
2022-08-02T20:45:06.551Z,1.60
2022-08-02T20:47:39.976Z,5.05
2022-08-02T20:50:35.446Z,2.35
2022-08-02T20:53:04.883Z,2.58
2022-08-02T20:55:35.631Z,1.83
2022-08-02T20:58:04.954Z,2.40
2022-08-02T21:00:35.478Z,1.38
2022-08-02T21:03:05.240Z,1.85
2022-08-02T21:05:55.061Z,1.90
2022-08-02T21:08:24.076Z,1.85
2022-08-02T21:10:53.394Z,2.05
2022-08-02T21:13:26.140Z,2.08
2022-08-02T21:16:00.504Z,6.15
2022-08-02T21:18:40.178Z,2.65
2022-08-02T21:21:09.565Z,1.10
2022-08-02T21:26:30.733Z,4.57
2022-08-02T21:29:03.070Z,1.88
2022-08-02T21:34:27.177Z,1.42
2022-08-02T21:36:56.309Z,1.70
2022-08-02T21:39:24.700Z,1.90
2022-08-02T21:41:53.406Z,1.00
2022-08-02T21:44:23.159Z,4.15
2022-08-02T21:46:55.647Z,2.83
2022-08-02T21:49:27.406Z,1.42
2022-08-02T21:52:14.231Z,3.63
2022-08-02T21:54:45.341Z,1.27
2022-08-02T21:57:16.153Z,2.00
2022-08-02T22:02:17.974Z,7.20
2022-08-02T22:04:47.849Z,2.10
2022-08-02T22:07:24.004Z,3.00
2022-08-02T22:09:53.324Z,1.08
2022-08-02T22:12:25.891Z,2.33
2022-08-02T22:14:56.589Z,1.70
2022-08-02T22:17:50.598Z,3.28
2022-08-02T22:20:19.777Z,1.63
2022-08-02T22:22:50.415Z,2.38
2022-08-02T22:25:27.357Z,1.20
2022-08-02T22:28:36.561Z,1.92
2022-08-02T22:30:57.614Z,2.17
2022-08-02T22:34:00.896Z,1.85
2022-08-02T22:36:31.270Z,1.35
2022-08-02T22:39:01.007Z,0.82
2022-08-02T22:42:01.491Z,1.48
2022-08-02T22:47:14.504Z,2.63
2022-08-02T22:49:52.890Z,3.45
2022-08-02T22:52:23.013Z,1.40
2022-08-02T22:54:52.238Z,2.03
2022-08-02T22:57:30.777Z,1.42
2022-08-02T22:58:35.575Z,17.40
2022-08-02T22:58:58.174Z,13.70
2022-08-02T22:59:02.553Z,4.38
2022-08-02T22:59:06.148Z,2.50
2022-08-02T22:59:06.250Z,3.28
2022-08-02T22:59:09.786Z,2.28
2022-08-02T23:00:00.787Z,1.40
2022-08-02T23:02:29.996Z,2.95
2022-08-02T23:04:59.917Z,2.08
2022-08-02T23:07:28.322Z,4.30
2022-08-02T23:10:06.127Z,1.50
2022-08-02T23:12:34.695Z,2.63
2022-08-02T23:15:03.055Z,1.45
2022-08-02T23:17:49.107Z,2.25
2022-08-02T23:20:22.780Z,1.88
2022-08-02T23:22:51.068Z,1.77
2022-08-02T23:25:20.321Z,1.45
2022-08-02T23:27:51.141Z,3.10
2022-08-02T23:32:48.216Z,1.90
2022-08-02T23:35:17.511Z,1.90
2022-08-02T23:38:00.326Z,1.30
2022-08-02T23:40:39.527Z,1.45
2022-08-02T23:43:13.338Z,1.77
2022-08-02T23:45:45.159Z,2.72
2022-08-02T23:48:13.494Z,1.25
2022-08-02T23:50:41.840Z,2.97
2022-08-02T23:53:11.435Z,2.45
2022-08-02T23:55:39.732Z,1.90
2022-08-02T23:58:08.015Z,1.40
